createdAt,value
2019-05-25T00:00:53.915Z,92.70
2019-05-25T00:03:20.402Z,92.80
2019-05-25T00:05:46.878Z,93.10
2019-05-25T00:08:13.284Z,93.00
2019-05-25T00:10:40.001Z,92.80
2019-05-25T00:13:06.618Z,92.30
2019-05-25T00:15:33.174Z,91.80
2019-05-25T00:17:59.693Z,91.80
2019-05-25T00:20:26.083Z,92.00
2019-05-25T00:22:52.544Z,91.80
2019-05-25T00:25:18.920Z,91.80
2019-05-25T00:27:45.528Z,91.80
2019-05-25T00:30:12.495Z,92.00
2019-05-25T00:32:38.872Z,91.90
2019-05-25T00:35:05.442Z,91.90
2019-05-25T00:37:32.311Z,91.60
2019-05-25T00:39:58.828Z,91.60
2019-05-25T00:42:25.448Z,92.10
2019-05-25T00:44:51.852Z,92.10
2019-05-25T00:47:18.273Z,92.00
2019-05-25T00:49:45.254Z,92.70
2019-05-25T00:52:11.870Z,92.40
2019-05-25T00:54:38.338Z,92.60
2019-05-25T00:57:04.743Z,92.40
2019-05-25T00:59:31.312Z,92.50
2019-05-25T01:01:57.804Z,92.70
2019-05-25T01:04:24.304Z,92.70
2019-05-25T01:06:50.930Z,93.00
2019-05-25T01:09:17.520Z,93.00
2019-05-25T01:11:44.037Z,93.20
2019-05-25T01:14:10.433Z,92.80
2019-05-25T01:16:36.809Z,93.40
2019-05-25T01:19:03.348Z,93.40
2019-05-25T01:21:30.917Z,93.50
2019-05-25T01:23:57.375Z,93.70
2019-05-25T01:26:23.836Z,93.70
2019-05-25T01:28:50.224Z,93.80
2019-05-25T01:31:16.785Z,93.90
2019-05-25T01:33:43.268Z,94.00
2019-05-25T01:36:09.740Z,94.30
2019-05-25T01:38:36.129Z,94.40
2019-05-25T01:41:02.613Z,94.40
2019-05-25T01:43:29.033Z,94.30
2019-05-25T01:45:55.690Z,94.30
2019-05-25T01:48:22.240Z,94.60
2019-05-25T01:50:48.732Z,94.70
2019-05-25T01:53:15.212Z,95.00
2019-05-25T01:55:42.078Z,95.20
2019-05-25T01:58:08.570Z,95.30
2019-05-25T02:00:35.188Z,95.30
2019-05-25T02:03:01.717Z,95.40
2019-05-25T02:05:28.200Z,95.30
2019-05-25T02:07:54.748Z,95.40
2019-05-25T02:10:21.298Z,95.50
2019-05-25T02:12:47.777Z,95.50
2019-05-25T02:15:14.332Z,95.70
2019-05-25T02:17:40.962Z,95.80
2019-05-25T02:20:08.081Z,95.80
2019-05-25T02:22:34.665Z,95.70
2019-05-25T02:25:16.355Z,96.00
2019-05-25T02:27:29.523Z,96.40
2019-05-25T02:29:55.933Z,96.70
2019-05-25T02:32:22.504Z,96.20
2019-05-25T02:34:49.130Z,96.10
2019-05-25T02:37:15.498Z,96.20
2019-05-25T02:39:41.970Z,96.20
2019-05-25T02:42:09.579Z,96.40
2019-05-25T02:44:36.077Z,96.60
2019-05-25T02:47:02.757Z,96.70
2019-05-25T02:49:29.254Z,96.70
2019-05-25T02:51:55.770Z,96.80
2019-05-25T02:54:22.264Z,96.90
2019-05-25T02:56:48.645Z,96.90
2019-05-25T02:59:15.100Z,97.40
2019-05-25T03:01:41.577Z,97.60
2019-05-25T03:04:07.983Z,97.90
2019-05-25T03:06:34.957Z,97.60
2019-05-25T03:09:04.593Z,97.80
2019-05-25T03:11:31.440Z,98.70
2019-05-25T03:13:58.020Z,98.20
2019-05-25T03:16:24.414Z,98.60
2019-05-25T03:18:50.892Z,98.30
2019-05-25T03:21:17.493Z,98.30
2019-05-25T03:23:43.899Z,98.30
2019-05-25T03:26:10.269Z,98.60
2019-05-25T03:28:36.646Z,98.50
2019-05-25T03:31:03.446Z,98.60
2019-05-25T03:33:30.061Z,98.50
2019-05-25T03:35:56.524Z,98.50
2019-05-25T03:38:22.983Z,98.60
2019-05-25T03:40:49.396Z,99.00
2019-05-25T03:43:15.787Z,98.50
2019-05-25T03:45:42.335Z,98.50
2019-05-25T03:48:08.798Z,98.60
2019-05-25T03:50:35.172Z,98.80
2019-05-25T03:53:01.558Z,98.60
2019-05-25T03:55:28.146Z,98.70
2019-05-25T03:57:54.620Z,98.50
2019-05-25T04:00:35.272Z,98.30
2019-05-25T04:03:01.863Z,97.50
2019-05-25T04:05:28.490Z,98.20
2019-05-25T04:07:54.885Z,98.10
2019-05-25T04:10:22.987Z,98.30
2019-05-25T04:12:49.568Z,98.30
2019-05-25T04:15:16.070Z,98.40
2019-05-25T04:17:42.436Z,98.60
2019-05-25T04:20:09.015Z,98.40
2019-05-25T04:22:35.407Z,98.80
2019-05-25T04:25:02.967Z,98.10
2019-05-25T04:27:29.360Z,98.10
2019-05-25T04:29:55.706Z,97.90
2019-05-25T04:32:22.161Z,98.20
2019-05-25T04:34:48.611Z,97.70
2019-05-25T04:37:14.978Z,97.40
2019-05-25T04:39:41.452Z,96.90
2019-05-25T04:42:07.848Z,96.50
2019-05-25T04:44:34.338Z,96.00
2019-05-25T04:47:00.824Z,95.50
2019-05-25T04:49:27.266Z,94.80
2019-05-25T04:51:53.957Z,94.80
2019-05-25T04:54:20.328Z,93.70
2019-05-25T04:56:46.885Z,91.80
2019-05-25T04:59:13.370Z,88.70
2019-05-25T05:01:39.937Z,86.00
2019-05-25T05:04:06.442Z,83.90
2019-05-25T05:06:33.136Z,81.70
2019-05-25T05:08:59.537Z,78.80
2019-05-25T05:11:25.913Z,76.40
2019-05-25T05:13:52.330Z,73.70
2019-05-25T05:16:18.841Z,71.80
2019-05-25T05:18:45.212Z,69.50
2019-05-25T05:21:11.583Z,66.80
2019-05-25T05:23:39.287Z,65.20
2019-05-25T05:26:05.680Z,62.60
2019-05-25T05:28:32.180Z,61.20
2019-05-25T05:30:58.550Z,59.50
2019-05-25T05:33:26.043Z,58.30
2019-05-25T05:35:53.707Z,57.30
2019-05-25T05:38:20.890Z,56.40
2019-05-25T05:41:07.461Z,55.90
2019-05-25T05:43:54.078Z,55.20
2019-05-25T05:46:40.408Z,54.50
2019-05-25T05:49:27.472Z,51.80
2019-05-25T05:52:13.416Z,52.50
2019-05-25T05:55:01.161Z,51.90
2019-05-25T05:57:46.456Z,51.10
2019-05-25T06:00:31.700Z,50.20
2019-05-25T06:03:16.633Z,49.60
2019-05-25T06:06:01.582Z,50.00
2019-05-25T06:08:46.727Z,48.90
2019-05-25T06:11:32.915Z,48.80
2019-05-25T06:14:18.064Z,48.30
2019-05-25T06:17:03.178Z,47.00
2019-05-25T06:19:48.329Z,46.50
2019-05-25T06:22:33.638Z,45.90
2019-05-25T06:24:59.989Z,45.20
2019-05-25T06:27:27.927Z,44.70
2019-05-25T06:29:54.545Z,44.00
2019-05-25T06:32:20.910Z,44.70
2019-05-25T06:34:47.295Z,45.20
2019-05-25T06:37:13.833Z,45.30
2019-05-25T06:39:40.335Z,44.40
2019-05-25T06:42:06.929Z,44.10
2019-05-25T06:44:33.389Z,43.00
2019-05-25T06:46:59.789Z,42.50
2019-05-25T06:49:26.230Z,43.30
2019-05-25T06:51:52.483Z,43.30
2019-05-25T06:54:18.768Z,41.80
2019-05-25T06:56:45.150Z,42.00
2019-05-25T06:59:11.514Z,42.60
2019-05-25T07:01:37.896Z,40.90
2019-05-25T07:04:24.424Z,39.90
2019-05-25T07:06:53.329Z,39.60
2019-05-25T07:09:19.956Z,38.70
2019-05-25T07:11:46.345Z,39.50
2019-05-25T07:14:14.417Z,41.20
2019-05-25T07:16:41.541Z,40.70
2019-05-25T07:19:07.815Z,40.60
2019-05-25T07:21:34.193Z,39.00
2019-05-25T07:24:00.468Z,40.00
2019-05-25T07:26:27.227Z,40.70
2019-05-25T07:28:53.652Z,40.40
2019-05-25T07:31:20.269Z,38.80
2019-05-25T07:33:46.668Z,38.00
2019-05-25T07:36:13.057Z,36.70
2019-05-25T07:38:39.357Z,39.40
2019-05-25T07:41:05.817Z,40.70
2019-05-25T07:43:32.388Z,39.40
2019-05-25T07:45:58.747Z,38.50
2019-05-25T07:48:25.179Z,39.10
2019-05-25T07:50:51.475Z,39.70
2019-05-25T07:53:17.733Z,39.60
2019-05-25T07:55:44.027Z,39.50
2019-05-25T07:58:17.425Z,40.60
2019-05-25T08:00:38.650Z,41.00
2019-05-25T08:03:04.975Z,40.50
2019-05-25T08:05:31.830Z,39.30
2019-05-25T08:08:00.125Z,38.40
2019-05-25T08:10:26.670Z,37.60
2019-05-25T08:12:52.937Z,36.80
2019-05-25T08:15:23.024Z,37.30
2019-05-25T08:17:49.636Z,36.70
2019-05-25T08:20:16.365Z,34.40
2019-05-25T08:22:42.702Z,33.80
2019-05-25T08:25:09.370Z,31.80
2019-05-25T08:27:37.821Z,32.10
2019-05-25T08:30:05.804Z,31.50
2019-05-25T08:32:32.167Z,30.50
2019-05-25T08:34:58.555Z,29.90
2019-05-25T08:37:24.987Z,29.70
2019-05-25T08:39:51.380Z,29.40
2019-05-25T08:42:18.434Z,28.30
2019-05-25T08:44:48.443Z,27.80
2019-05-25T08:47:14.837Z,28.70
2019-05-25T08:49:41.234Z,29.50
2019-05-25T08:52:07.604Z,30.40
2019-05-25T08:54:34.140Z,31.40
2019-05-25T08:57:00.626Z,29.30
2019-05-25T08:59:27.630Z,29.60
2019-05-25T09:01:54.135Z,29.70
2019-05-25T09:04:20.516Z,28.50
2019-05-25T09:06:46.912Z,27.80
2019-05-25T09:09:13.303Z,26.50
2019-05-25T09:11:39.666Z,26.70
2019-05-25T09:14:05.965Z,26.90
2019-05-25T09:16:32.383Z,25.20
2019-05-25T09:18:58.911Z,27.90
2019-05-25T09:21:25.824Z,27.20
2019-05-25T09:23:52.193Z,27.80
2019-05-25T09:26:18.588Z,26.90
2019-05-25T09:28:45.005Z,26.30
2019-05-25T09:31:11.372Z,26.60
2019-05-25T09:33:37.724Z,27.70
2019-05-25T09:36:04.081Z,28.80
2019-05-25T09:38:30.362Z,30.00
2019-05-25T09:40:56.914Z,30.00
2019-05-25T09:43:23.407Z,30.50
2019-05-25T09:45:49.882Z,31.50
2019-05-25T09:48:16.416Z,33.20
2019-05-25T09:50:43.514Z,33.10
2019-05-25T09:53:10.070Z,33.30
2019-05-25T09:55:36.437Z,33.20
2019-05-25T09:58:03.141Z,33.30
2019-05-25T10:00:30.373Z,33.00
2019-05-25T10:02:56.851Z,32.50
2019-05-25T10:05:23.238Z,31.00
2019-05-25T10:07:49.785Z,31.60
2019-05-25T10:10:16.521Z,33.10
2019-05-25T10:12:44.006Z,32.90
2019-05-25T10:15:11.226Z,33.70
2019-05-25T10:17:37.746Z,33.10
2019-05-25T10:20:11.134Z,34.50
2019-05-25T10:22:37.561Z,34.80
2019-05-25T10:25:07.051Z,33.60
2019-05-25T10:27:34.318Z,33.80
2019-05-25T10:30:01.417Z,33.20
2019-05-25T10:32:29.445Z,33.50
2019-05-25T10:34:56.214Z,34.70
2019-05-25T10:37:22.703Z,35.50
2019-05-25T10:39:49.089Z,35.40
2019-05-25T10:42:15.882Z,35.30
2019-05-25T10:44:42.601Z,35.60
2019-05-25T10:47:09.298Z,36.60
2019-05-25T10:49:35.874Z,37.40
2019-05-25T10:52:02.444Z,38.40
2019-05-25T10:54:29.039Z,38.50
2019-05-25T10:56:55.427Z,38.40
2019-05-25T10:59:21.827Z,38.10
2019-05-25T11:01:48.249Z,39.00
2019-05-25T11:04:14.737Z,38.40
2019-05-25T11:06:41.191Z,38.80
2019-05-25T11:09:07.737Z,38.40
2019-05-25T11:11:34.243Z,36.30
2019-05-25T11:14:00.874Z,36.40
2019-05-25T11:16:27.348Z,36.40
2019-05-25T11:18:54.029Z,36.80
2019-05-25T11:21:20.499Z,36.30
2019-05-25T11:23:47.024Z,35.50
2019-05-25T11:26:13.783Z,35.10
2019-05-25T11:28:40.147Z,35.10
2019-05-25T11:31:06.654Z,34.80
2019-05-25T11:33:36.269Z,33.80
2019-05-25T11:36:01.483Z,33.10
2019-05-25T11:38:27.932Z,34.80
2019-05-25T11:40:54.391Z,34.30
2019-05-25T11:43:20.757Z,32.60
2019-05-25T11:45:47.359Z,33.50
2019-05-25T11:48:13.885Z,32.50
2019-05-25T11:50:40.364Z,32.70
2019-05-25T11:53:06.993Z,33.10
2019-05-25T11:55:35.917Z,34.00
2019-05-25T11:58:03.487Z,34.80
2019-05-25T12:00:30.391Z,35.00
2019-05-25T12:02:56.741Z,35.00
2019-05-25T12:05:23.234Z,34.70
2019-05-25T12:07:50.737Z,34.30
2019-05-25T12:10:18.300Z,34.50
2019-05-25T12:12:44.855Z,33.80
2019-05-25T12:15:12.739Z,33.40
2019-05-25T12:17:39.165Z,33.20
2019-05-25T12:20:06.088Z,32.50
2019-05-25T12:22:33.896Z,32.80
2019-05-25T12:25:01.406Z,32.50
2019-05-25T12:27:27.923Z,33.40
2019-05-25T12:29:54.510Z,34.70
2019-05-25T12:32:20.886Z,35.00
2019-05-25T12:34:47.277Z,36.00
2019-05-25T12:37:13.680Z,38.30
2019-05-25T12:39:40.081Z,38.60
2019-05-25T12:42:06.475Z,40.70
2019-05-25T12:44:34.498Z,41.00
2019-05-25T12:47:01.384Z,41.90
2019-05-25T12:49:27.937Z,42.30
2019-05-25T12:51:54.428Z,41.70
2019-05-25T12:54:20.779Z,41.70
2019-05-25T12:56:47.218Z,41.30
2019-05-25T12:59:13.686Z,42.50
2019-05-25T13:01:40.072Z,42.50
2019-05-25T13:04:06.566Z,42.40
2019-05-25T13:06:33.000Z,42.30
2019-05-25T13:08:59.526Z,42.00
2019-05-25T13:11:26.029Z,41.70
2019-05-25T13:13:52.481Z,41.50
2019-05-25T13:16:18.938Z,40.30
2019-05-25T13:18:45.296Z,41.60
2019-05-25T13:21:11.828Z,41.20
2019-05-25T13:23:38.294Z,41.30
2019-05-25T13:26:04.692Z,41.40
2019-05-25T13:28:31.157Z,41.90
2019-05-25T13:31:10.696Z,41.80
2019-05-25T13:33:25.993Z,40.90
2019-05-25T13:35:52.398Z,41.00
2019-05-25T13:38:19.374Z,41.10
2019-05-25T13:40:45.842Z,41.70
2019-05-25T13:43:12.246Z,41.60
2019-05-25T13:45:38.608Z,40.90
2019-05-25T13:48:05.010Z,41.50
2019-05-25T13:50:32.505Z,40.70
2019-05-25T13:52:58.892Z,40.60
2019-05-25T13:55:25.252Z,41.00
2019-05-25T13:57:51.665Z,40.80
2019-05-25T14:00:18.882Z,40.00
2019-05-25T14:02:45.350Z,40.60
2019-05-25T14:05:12.546Z,40.10
2019-05-25T14:07:39.038Z,40.10
2019-05-25T14:10:07.193Z,40.10
2019-05-25T14:12:34.935Z,39.90
2019-05-25T14:15:01.618Z,40.30
2019-05-25T14:17:28.317Z,41.20
2019-05-25T14:19:54.724Z,40.70
2019-05-25T14:22:21.236Z,41.40
2019-05-25T14:24:47.792Z,41.90
2019-05-25T14:27:14.276Z,42.30
2019-05-25T14:29:40.698Z,42.00
2019-05-25T14:32:07.210Z,42.70
2019-05-25T14:34:33.583Z,43.40
2019-05-25T14:37:00.096Z,44.30
2019-05-25T14:39:26.817Z,44.40
2019-05-25T14:41:53.366Z,44.40
2019-05-25T14:44:19.748Z,44.60
2019-05-25T14:46:46.097Z,43.90
2019-05-25T14:49:12.541Z,43.60
2019-05-25T14:51:39.021Z,43.20
2019-05-25T14:54:05.665Z,43.60
2019-05-25T14:56:32.187Z,43.70
2019-05-25T14:58:58.582Z,43.40
2019-05-25T15:01:24.994Z,43.60
2019-05-25T15:03:51.534Z,44.60
2019-05-25T15:06:20.921Z,44.20
2019-05-25T15:08:47.467Z,44.80
2019-05-25T15:11:14.300Z,46.90
2019-05-25T15:13:40.799Z,47.80
2019-05-25T15:16:07.216Z,49.20
2019-05-25T15:18:34.719Z,48.80
2019-05-25T15:21:01.113Z,50.20
2019-05-25T15:23:27.499Z,50.50
2019-05-25T15:25:53.922Z,53.30
2019-05-25T15:28:20.777Z,57.40
2019-05-25T15:30:48.417Z,58.60
2019-05-25T15:33:14.989Z,61.10
2019-05-25T15:35:41.359Z,61.00
2019-05-25T15:38:07.870Z,62.90
2019-05-25T15:40:53.217Z,65.80
2019-05-25T15:43:38.478Z,67.50
2019-05-25T15:46:23.729Z,70.40
2019-05-25T15:49:08.664Z,72.00
2019-05-25T15:51:53.846Z,72.70
2019-05-25T15:54:21.526Z,73.20
2019-05-25T15:56:47.885Z,74.00
2019-05-25T15:59:14.276Z,74.50
2019-05-25T16:01:40.977Z,75.30
2019-05-25T16:04:07.640Z,74.40
2019-05-25T16:06:34.047Z,72.50
2019-05-25T16:09:00.734Z,72.00
2019-05-25T16:11:27.201Z,72.10
2019-05-25T16:13:53.684Z,71.50
2019-05-25T16:16:20.084Z,72.30
2019-05-25T16:18:46.453Z,72.40
2019-05-25T16:21:12.842Z,72.50
2019-05-25T16:23:39.229Z,73.50
2019-05-25T16:26:05.714Z,73.70
2019-05-25T16:28:32.208Z,74.10
2019-05-25T16:30:58.708Z,75.10
2019-05-25T16:33:25.195Z,74.70
2019-05-25T16:35:52.233Z,74.40
2019-05-25T16:38:19.198Z,74.60
2019-05-25T16:40:45.943Z,74.70
2019-05-25T16:43:12.627Z,74.80
2019-05-25T16:45:39.134Z,75.30
2019-05-25T16:48:05.527Z,75.10
2019-05-25T16:50:32.090Z,74.80
2019-05-25T16:52:58.474Z,75.10
2019-05-25T16:55:26.071Z,75.80
2019-05-25T16:57:52.454Z,75.50
2019-05-25T17:00:26.681Z,75.50
2019-05-25T17:02:53.980Z,75.70
2019-05-25T17:05:20.380Z,76.00
2019-05-25T17:07:46.792Z,76.00
2019-05-25T17:10:13.406Z,75.50
2019-05-25T17:12:39.800Z,75.40
2019-05-25T17:15:06.502Z,75.90
2019-05-25T17:17:32.986Z,75.50
2019-05-25T17:19:59.354Z,75.60
2019-05-25T17:22:25.770Z,75.50
2019-05-25T17:24:52.324Z,75.90
2019-05-25T17:27:19.130Z,76.20
2019-05-25T17:29:45.602Z,76.50
2019-05-25T17:32:12.284Z,76.70
2019-05-25T17:34:38.665Z,77.30
2019-05-25T17:37:05.149Z,77.40
2019-05-25T17:39:31.666Z,77.50
2019-05-25T17:41:58.166Z,77.30
2019-05-25T17:44:24.547Z,77.30
2019-05-25T17:46:50.978Z,77.40
2019-05-25T17:49:17.631Z,77.20
2019-05-25T17:51:44.112Z,76.90
2019-05-25T17:54:10.477Z,77.00
2019-05-25T17:56:36.848Z,76.90
2019-05-25T17:59:03.522Z,77.40
2019-05-25T18:01:31.119Z,77.40
2019-05-25T18:04:06.299Z,77.50
2019-05-25T18:06:25.754Z,77.60
2019-05-25T18:08:53.353Z,78.80
2019-05-25T18:11:19.926Z,77.90
2019-05-25T18:13:46.312Z,77.90
2019-05-25T18:16:12.909Z,78.10
2019-05-25T18:18:39.348Z,78.10
2019-05-25T18:21:05.938Z,78.00
2019-05-25T18:23:32.553Z,77.90
2019-05-25T18:25:58.928Z,78.00
2019-05-25T18:28:25.307Z,78.40
2019-05-25T18:30:51.696Z,78.60
2019-05-25T18:33:19.304Z,78.90
2019-05-25T18:35:46.093Z,79.30
2019-05-25T18:38:12.620Z,79.50
2019-05-25T18:40:39.107Z,79.10
2019-05-25T18:43:05.742Z,79.20
2019-05-25T18:45:32.207Z,79.00
2019-05-25T18:48:00.134Z,79.40
2019-05-25T18:50:26.600Z,80.20
2019-05-25T18:52:54.194Z,80.60
2019-05-25T18:55:20.962Z,80.20
2019-05-25T18:57:47.472Z,80.40
2019-05-25T19:00:16.152Z,80.30
2019-05-25T19:02:42.746Z,79.70
2019-05-25T19:05:11.238Z,79.70
2019-05-25T19:07:37.762Z,79.90
2019-05-25T19:10:06.438Z,80.20
2019-05-25T19:12:33.064Z,80.90
2019-05-25T19:14:59.558Z,80.90
2019-05-25T19:17:25.948Z,80.80
2019-05-25T19:19:52.330Z,81.20
2019-05-25T19:22:18.839Z,81.20
2019-05-25T19:24:45.243Z,81.60
2019-05-25T19:27:11.614Z,81.70
2019-05-25T19:29:38.027Z,82.00
2019-05-25T19:32:04.585Z,82.00
2019-05-25T19:34:31.195Z,81.90
2019-05-25T19:37:03.334Z,81.80
2019-05-25T19:39:26.335Z,81.70
2019-05-25T19:41:52.822Z,82.00
2019-05-25T19:44:19.358Z,82.20
2019-05-25T19:46:45.729Z,82.00
2019-05-25T19:49:12.130Z,82.60
2019-05-25T19:51:38.977Z,82.80
2019-05-25T19:54:06.567Z,83.20
2019-05-25T19:56:33.040Z,83.30
2019-05-25T19:58:59.531Z,83.60
2019-05-25T20:01:25.938Z,83.70
2019-05-25T20:03:52.399Z,84.00
2019-05-25T20:06:18.933Z,84.10
2019-05-25T20:08:45.326Z,84.60
2019-05-25T20:11:11.778Z,85.00
2019-05-25T20:13:38.151Z,84.90
2019-05-25T20:16:04.860Z,85.00
2019-05-25T20:18:31.363Z,85.00
2019-05-25T20:20:57.724Z,85.00
2019-05-25T20:23:24.144Z,85.00
2019-05-25T20:25:50.613Z,85.00
2019-05-25T20:28:17.001Z,85.00
2019-05-25T20:30:43.481Z,85.00
2019-05-25T20:33:11.008Z,84.80
2019-05-25T20:35:37.698Z,84.80
2019-05-25T20:38:05.287Z,85.00
2019-05-25T20:40:31.709Z,84.80
2019-05-25T20:42:58.261Z,84.80
2019-05-25T20:45:24.646Z,84.80
2019-05-25T20:47:51.123Z,85.20
2019-05-25T20:50:18.120Z,85.80
2019-05-25T20:52:44.497Z,85.70
2019-05-25T20:55:11.111Z,86.00
2019-05-25T20:57:37.727Z,86.50
2019-05-25T21:00:05.347Z,87.30
2019-05-25T21:02:33.760Z,88.20
2019-05-25T21:05:00.166Z,88.50
2019-05-25T21:07:26.755Z,88.80
2019-05-25T21:09:53.339Z,90.00
2019-05-25T21:12:19.826Z,90.20
2019-05-25T21:14:46.439Z,91.10
2019-05-25T21:17:13.017Z,92.10
2019-05-25T21:19:39.399Z,92.00
2019-05-25T21:22:06.187Z,93.00
2019-05-25T21:24:32.815Z,92.80
2019-05-25T21:26:59.169Z,93.10
2019-05-25T21:29:25.558Z,92.90
2019-05-25T21:31:51.914Z,93.40
2019-05-25T21:34:18.803Z,93.70
2019-05-25T21:36:45.198Z,93.90
2019-05-25T21:39:11.595Z,94.10
2019-05-25T21:41:38.047Z,93.90
2019-05-25T21:44:04.489Z,94.10
2019-05-25T21:46:30.877Z,94.20
2019-05-25T21:48:57.383Z,94.60
2019-05-25T21:51:23.964Z,94.60
2019-05-25T21:53:50.526Z,94.40
2019-05-25T21:56:16.970Z,94.40
2019-05-25T21:58:43.449Z,94.50
2019-05-25T22:01:10.166Z,94.70
2019-05-25T22:03:36.657Z,94.60
2019-05-25T22:06:03.348Z,94.60
2019-05-25T22:08:29.714Z,94.90
2019-05-25T22:10:56.249Z,94.90
2019-05-25T22:13:28.321Z,95.00
2019-05-25T22:15:50.964Z,95.30
2019-05-25T22:18:17.410Z,95.40
2019-05-25T22:20:43.787Z,95.50
2019-05-25T22:23:10.177Z,95.60
2019-05-25T22:25:36.590Z,95.80
2019-05-25T22:28:03.059Z,95.80
2019-05-25T22:30:29.543Z,95.80
2019-05-25T22:32:55.918Z,95.80
2019-05-25T22:35:22.495Z,95.80
2019-05-25T22:37:48.873Z,95.80
2019-05-25T22:40:15.952Z,95.80
2019-05-25T22:42:42.342Z,95.60
2019-05-25T22:45:09.190Z,95.60
2019-05-25T22:47:35.752Z,95.50
2019-05-25T22:50:03.722Z,95.60
2019-05-25T22:52:30.155Z,95.50
2019-05-25T22:54:56.637Z,95.20
2019-05-25T22:57:23.211Z,95.20
2019-05-25T22:59:49.783Z,95.30
2019-05-25T23:02:16.186Z,95.20
2019-05-25T23:04:42.760Z,95.80
2019-05-25T23:07:09.138Z,95.70
2019-05-25T23:09:35.497Z,96.30
2019-05-25T23:12:01.983Z,96.30
2019-05-25T23:14:28.474Z,96.50
2019-05-25T23:16:54.880Z,97.40
2019-05-25T23:19:21.341Z,98.00
2019-05-25T23:21:48.020Z,98.00
2019-05-25T23:24:14.470Z,98.30
2019-05-25T23:26:46.136Z,98.60
2019-05-25T23:29:12.769Z,98.60
2019-05-25T23:31:39.166Z,98.70
2019-05-25T23:34:05.727Z,99.30
2019-05-25T23:36:32.084Z,99.40
2019-05-25T23:38:58.483Z,99.40
2019-05-25T23:41:24.962Z,99.90
2019-05-25T23:43:51.635Z,99.90
2019-05-25T23:46:19.138Z,99.90
2019-05-25T23:48:45.820Z,99.90
2019-05-25T23:51:12.189Z,99.90
2019-05-25T23:53:38.569Z,99.90
2019-05-25T23:56:04.932Z,99.90
2019-05-25T23:58:31.302Z,99.90
